createdAt,value
2019-04-01T00:14:43.242Z,28.53
2019-04-01T00:23:20.836Z,27.30
2019-04-01T00:26:01.995Z,28.03
2019-04-01T00:28:42.918Z,29.77
2019-04-01T00:31:23.953Z,28.60
2019-04-01T00:34:04.744Z,27.37
2019-04-01T00:36:44.196Z,29.13
2019-04-01T00:39:31.798Z,28.83
2019-04-01T00:42:39.213Z,28.87
2019-04-01T00:48:36.827Z,27.77
2019-04-01T00:51:24.974Z,27.23
2019-04-01T00:54:13.105Z,31.13
2019-04-01T00:57:01.225Z,28.13
2019-04-01T00:59:41.734Z,27.97
2019-04-01T01:02:22.337Z,28.90
2019-04-01T01:05:02.929Z,27.33
2019-04-01T01:07:43.801Z,29.67
2019-04-01T01:13:37.095Z,26.33
2019-04-01T01:16:17.815Z,28.80
2019-04-01T01:18:58.841Z,27.90
2019-04-01T01:21:39.700Z,26.63
2019-04-01T01:24:20.426Z,28.93
2019-04-01T01:27:01.362Z,28.00
2019-04-01T01:29:41.902Z,27.67
2019-04-01T01:32:22.645Z,28.70
2019-04-01T01:35:03.328Z,28.77
2019-04-01T01:37:44.061Z,27.23
2019-04-01T01:40:24.967Z,27.77
2019-04-01T01:43:05.714Z,27.83
2019-04-01T01:45:46.397Z,30.23
2019-04-01T01:48:26.982Z,26.13
2019-04-01T01:51:07.941Z,30.07
2019-04-01T01:53:48.682Z,27.20
2019-04-01T01:56:29.488Z,29.17
2019-04-01T01:59:10.089Z,28.17
2019-04-01T02:01:50.858Z,28.53
2019-04-01T02:04:31.401Z,28.70
2019-04-01T02:07:12.061Z,27.07
2019-04-01T02:09:52.678Z,28.93
2019-04-01T02:12:33.407Z,29.00
2019-04-01T02:18:14.030Z,28.17
2019-04-01T02:20:54.892Z,29.17
2019-04-01T02:23:35.754Z,29.70
2019-04-01T02:26:16.433Z,28.13
2019-04-01T02:28:57.013Z,27.20
2019-04-01T02:31:37.593Z,29.23
2019-04-01T02:34:18.383Z,29.77
2019-04-01T02:36:58.794Z,28.33
2019-04-01T02:39:39.334Z,27.47
2019-04-01T02:42:19.942Z,30.33
2019-04-01T02:45:00.662Z,29.03
2019-04-01T02:47:42.079Z,28.10
2019-04-01T02:50:22.522Z,30.97
2019-04-01T02:53:03.098Z,28.67
2019-04-01T02:55:43.660Z,30.10
2019-04-01T02:58:24.029Z,28.27
2019-04-01T03:01:04.834Z,29.83
2019-04-01T03:03:45.962Z,29.60
2019-04-01T03:06:26.659Z,28.70
2019-04-01T03:09:07.208Z,29.60
2019-04-01T03:11:47.869Z,29.43
2019-04-01T03:14:28.585Z,30.83
2019-04-01T03:20:08.521Z,28.90
2019-04-01T03:22:49.233Z,30.50
2019-04-01T03:25:30.251Z,28.40
2019-04-01T03:28:10.986Z,30.27
2019-04-01T03:30:52.118Z,29.37
2019-04-01T03:33:32.577Z,29.07
2019-04-01T03:36:13.470Z,30.33
2019-04-01T03:38:53.795Z,28.73
2019-04-01T03:44:33.486Z,31.20
2019-04-01T03:47:14.169Z,30.57
2019-04-01T03:49:54.787Z,28.43
2019-04-01T03:52:35.532Z,30.17
2019-04-01T03:55:16.114Z,31.60
2019-04-01T04:00:57.032Z,29.97
2019-04-01T04:03:38.022Z,31.67
2019-04-01T04:06:18.783Z,30.47
2019-04-01T04:09:01.971Z,29.90
2019-04-01T04:11:42.526Z,29.57
2019-04-01T04:14:23.675Z,31.97
2019-04-01T04:20:02.809Z,28.43
2019-04-01T04:22:43.658Z,32.17
2019-04-01T04:25:24.507Z,31.23
2019-04-01T04:31:04.122Z,33.47
2019-04-01T04:33:44.606Z,34.23
2019-04-01T04:36:25.344Z,31.50
2019-04-01T04:39:06.053Z,30.73
2019-04-01T04:44:44.969Z,31.57
2019-04-01T04:50:24.592Z,31.90
2019-04-01T04:53:04.986Z,30.70
2019-04-01T05:01:57.142Z,31.97
2019-04-01T05:07:50.604Z,35.77
2019-04-01T05:19:41.441Z,31.67
2019-04-01T05:22:22.462Z,32.23
2019-04-01T05:25:03.232Z,31.30
2019-04-01T05:27:44.042Z,31.97
2019-04-01T05:30:24.746Z,30.10
2019-04-01T05:36:04.143Z,30.37
2019-04-01T05:38:44.653Z,29.03
2019-04-01T05:41:25.230Z,30.43
2019-04-01T05:44:05.877Z,28.57
2019-04-01T05:46:46.558Z,28.10
2019-04-01T05:49:27.186Z,27.93
2019-04-01T05:55:20.329Z,28.17
2019-04-01T05:58:01.180Z,25.93
2019-04-01T06:03:55.050Z,26.80
2019-04-01T06:06:36.133Z,25.87
2019-04-01T06:09:17.497Z,23.20
2019-04-01T06:11:58.304Z,24.23
2019-04-01T06:14:39.013Z,24.13
2019-04-01T06:23:30.368Z,22.20
2019-04-01T06:26:11.081Z,20.80
2019-04-01T06:28:51.882Z,19.73
2019-04-01T06:31:32.633Z,20.63
2019-04-01T06:34:13.430Z,19.50
2019-04-01T06:40:07.293Z,19.90
2019-04-01T06:42:48.005Z,20.17
2019-04-01T06:45:28.605Z,18.43
2019-04-01T06:48:09.355Z,18.43
2019-04-01T06:50:50.038Z,18.27
2019-04-01T06:53:30.927Z,17.27
2019-04-01T06:56:11.661Z,17.07
2019-04-01T06:58:52.557Z,18.42
2019-04-01T07:01:33.270Z,16.95
2019-04-01T07:04:13.912Z,16.82
2019-04-01T07:06:54.800Z,16.10
2019-04-01T07:09:35.621Z,15.98
2019-04-01T07:12:14.927Z,16.82
2019-04-01T07:15:03.122Z,17.20
2019-04-01T07:17:51.252Z,15.83
2019-04-01T07:20:39.689Z,17.52
2019-04-01T07:23:27.824Z,16.82
2019-04-01T07:25:56.905Z,16.48
2019-04-01T07:28:45.070Z,17.12
2019-04-01T07:31:33.205Z,16.25
2019-04-01T07:34:21.340Z,16.60
2019-04-01T07:37:09.491Z,16.70
2019-04-01T07:39:57.637Z,15.88
2019-04-01T07:42:45.783Z,16.85
2019-04-01T07:45:33.927Z,16.67
2019-04-01T07:48:22.141Z,17.07
2019-04-01T07:51:10.405Z,17.25
2019-04-01T07:53:58.786Z,16.70
2019-04-01T07:56:46.918Z,17.45
2019-04-01T07:59:35.175Z,15.70
2019-04-01T08:02:16.117Z,16.90
2019-04-01T08:04:56.673Z,17.50
2019-04-01T08:10:37.824Z,15.83
2019-04-01T08:13:06.869Z,15.58
2019-04-01T08:15:55.030Z,16.80
2019-04-01T08:18:43.190Z,16.20
2019-04-01T08:21:31.370Z,16.62
2019-04-01T08:24:19.514Z,16.95
2019-04-01T08:26:48.549Z,16.73
2019-04-01T08:29:36.709Z,17.45
2019-04-01T08:32:25.205Z,15.70
2019-04-01T08:35:13.337Z,17.37
2019-04-01T08:38:01.476Z,18.05
2019-04-01T08:40:49.677Z,20.20
2019-04-01T08:43:37.821Z,18.48
2019-04-01T08:46:06.882Z,17.85
2019-04-01T08:48:55.013Z,17.77
2019-04-01T08:51:43.171Z,17.10
2019-04-01T08:54:31.315Z,17.02
2019-04-01T08:57:19.857Z,20.05
2019-04-01T09:00:08.491Z,18.60
2019-04-01T09:02:56.649Z,21.10
2019-04-01T09:05:26.031Z,19.87
2019-04-01T09:08:14.282Z,19.62
2019-04-01T09:11:02.521Z,20.82
2019-04-01T09:13:50.696Z,21.07
2019-04-01T09:16:39.878Z,19.02
2019-04-01T09:19:28.010Z,20.37
2019-04-01T09:22:16.417Z,19.27
2019-04-01T09:25:04.177Z,19.10
2019-04-01T09:27:52.497Z,19.27
2019-04-01T09:30:40.697Z,20.12
2019-04-01T09:33:28.873Z,20.02
2019-04-01T09:36:17.011Z,19.00
2019-04-01T09:39:26.249Z,18.87
2019-04-01T09:42:13.837Z,18.62
2019-04-01T09:45:01.980Z,18.37
2019-04-01T09:47:50.121Z,17.50
2019-04-01T09:50:38.249Z,19.48
2019-04-01T09:53:26.400Z,18.50
2019-04-01T09:56:14.537Z,20.32
2019-04-01T09:59:02.787Z,19.85
2019-04-01T10:01:43.915Z,19.62
2019-04-01T10:04:24.928Z,19.20
2019-04-01T10:07:05.534Z,18.32
2019-04-01T10:09:46.520Z,18.70
2019-04-01T10:12:26.885Z,20.68
2019-04-01T10:15:07.621Z,19.65
2019-04-01T10:17:48.026Z,18.60
2019-04-01T10:20:28.647Z,20.10
2019-04-01T10:23:09.297Z,18.67
2019-04-01T10:25:51.586Z,20.10
2019-04-01T10:28:32.509Z,20.25
2019-04-01T10:31:13.141Z,20.10
2019-04-01T10:36:52.831Z,20.45
2019-04-01T10:39:33.369Z,20.82
2019-04-01T10:42:14.317Z,19.27
2019-04-01T10:44:55.001Z,17.42
2019-04-01T10:47:36.013Z,20.77
2019-04-01T10:50:16.970Z,20.43
2019-04-01T10:55:56.689Z,18.77
2019-04-01T10:58:37.467Z,21.15
2019-04-01T11:01:17.932Z,20.05
2019-04-01T11:03:58.546Z,19.75
2019-04-01T11:06:39.284Z,19.17
2019-04-01T11:09:19.993Z,19.70
2019-04-01T11:12:00.878Z,19.75
2019-04-01T11:14:41.518Z,18.55
2019-04-01T11:17:22.221Z,21.73
2019-04-01T11:20:02.697Z,19.27
2019-04-01T11:22:43.269Z,18.82
2019-04-01T11:25:24.129Z,20.08
2019-04-01T11:28:04.994Z,19.55
2019-04-01T11:30:45.751Z,18.75
2019-04-01T11:33:26.434Z,19.07
2019-04-01T11:36:07.149Z,18.15
2019-04-01T11:38:48.389Z,18.55
2019-04-01T11:41:29.077Z,18.10
2019-04-01T11:44:09.916Z,19.23
2019-04-01T11:46:50.903Z,18.27
2019-04-01T11:52:18.653Z,18.40
2019-04-01T11:55:08.848Z,18.48
2019-04-01T11:57:57.672Z,18.60
2019-04-01T12:00:39.127Z,17.98
2019-04-01T12:03:20.434Z,17.35
2019-04-01T12:06:01.137Z,19.55
2019-04-01T12:08:41.909Z,17.75
2019-04-01T12:11:22.573Z,18.55
2019-04-01T12:14:05.095Z,18.05
2019-04-01T12:16:45.926Z,18.12
2019-04-01T12:19:26.688Z,18.73
2019-04-01T12:22:07.653Z,16.73
2019-04-01T12:24:48.074Z,15.83
2019-04-01T12:27:28.717Z,17.52
2019-04-01T12:30:10.002Z,15.55
2019-04-01T12:32:50.740Z,16.80
2019-04-01T12:35:31.302Z,16.17
2019-04-01T12:38:00.560Z,17.55
2019-04-01T12:40:48.841Z,16.82
2019-04-01T12:43:37.114Z,15.63
2019-04-01T12:46:25.315Z,16.25
2019-04-01T12:49:13.445Z,16.17
2019-04-01T12:52:01.013Z,16.80
2019-04-01T12:54:49.576Z,16.45
2019-04-01T12:57:37.151Z,16.30
2019-04-01T13:00:18.098Z,16.73
2019-04-01T13:02:58.445Z,17.55
2019-04-01T13:05:38.969Z,17.20
2019-04-01T13:08:19.718Z,17.20
2019-04-01T13:11:00.504Z,15.72
2019-04-01T13:13:41.384Z,15.78
2019-04-01T13:16:22.077Z,15.35
2019-04-01T13:19:02.687Z,15.93
2019-04-01T13:21:43.615Z,15.35
2019-04-01T13:24:24.018Z,17.07
2019-04-01T13:27:07.373Z,15.60
2019-04-01T13:29:35.844Z,16.27
2019-04-01T13:32:23.942Z,15.30
2019-04-01T13:35:12.070Z,16.02
2019-04-01T13:38:00.194Z,16.75
2019-04-01T13:40:48.349Z,15.28
2019-04-01T13:43:17.373Z,15.68
2019-04-01T13:46:05.513Z,16.23
2019-04-01T13:48:58.004Z,15.60
2019-04-01T13:51:43.891Z,15.45
2019-04-01T13:54:33.585Z,13.58
2019-04-01T13:57:21.724Z,15.55
2019-04-01T14:00:10.139Z,14.43
2019-04-01T14:02:58.297Z,14.35
2019-04-01T14:05:45.876Z,12.98
2019-04-01T14:08:34.019Z,13.43
2019-04-01T14:11:22.149Z,14.53
2019-04-01T14:14:10.575Z,13.70
2019-04-01T14:16:58.765Z,14.58
2019-04-01T14:19:46.905Z,13.55
2019-04-01T14:22:34.961Z,14.60
2019-04-01T14:25:23.099Z,14.83
2019-04-01T14:28:11.225Z,12.82
2019-04-01T14:30:58.832Z,14.70
2019-04-01T14:33:47.005Z,13.65
2019-04-01T14:36:42.281Z,14.00
2019-04-01T14:39:34.572Z,14.07
2019-04-01T14:42:01.324Z,13.98
2019-04-01T14:48:08.600Z,13.72
2019-04-01T14:50:57.137Z,12.25
2019-04-01T14:53:44.708Z,12.80
2019-04-01T14:56:32.288Z,13.38
2019-04-01T14:59:20.492Z,13.22
2019-04-01T15:04:59.869Z,12.50
2019-04-01T15:07:40.241Z,11.88
2019-04-01T15:43:18.815Z,16.12
2019-04-01T15:45:59.913Z,16.80
2019-04-01T15:51:40.054Z,16.75
2019-04-01T15:54:20.866Z,16.60
2019-04-01T16:00:00.063Z,15.30
2019-04-01T16:02:41.612Z,16.77
2019-04-01T16:08:23.149Z,16.37
2019-04-01T16:11:11.554Z,15.40
2019-04-01T16:13:40.588Z,15.28
2019-04-01T16:16:28.924Z,14.98
2019-04-01T16:19:17.340Z,14.83
2019-04-01T16:22:05.746Z,16.07
2019-04-01T16:24:53.877Z,15.45
2019-04-01T16:27:43.097Z,15.53
2019-04-01T16:30:31.863Z,15.95
2019-04-01T16:33:20.049Z,15.75
2019-04-01T16:36:08.501Z,16.00
2019-04-01T16:38:56.885Z,15.55
2019-04-01T16:41:46.698Z,15.95
2019-04-01T16:44:34.338Z,15.70
2019-04-01T16:47:22.717Z,16.37
2019-04-01T16:50:31.366Z,16.10
2019-04-01T16:53:19.758Z,18.00
2019-04-01T16:55:48.778Z,16.42
2019-04-01T16:58:36.921Z,14.53
2019-04-01T17:10:26.985Z,15.30
2019-04-01T17:13:07.631Z,17.57
2019-04-01T17:15:50.654Z,15.98
2019-04-01T17:21:33.225Z,16.95
2019-04-01T17:27:13.586Z,15.83
2019-04-01T17:35:51.742Z,16.57
2019-04-01T17:38:32.150Z,15.77
2019-04-01T17:47:27.282Z,15.23
2019-04-01T17:50:07.732Z,15.58
2019-04-01T17:52:48.461Z,14.90
2019-04-01T17:58:28.396Z,15.90
2019-04-01T18:01:10.394Z,14.75
2019-04-01T18:06:50.364Z,81.30
2019-04-01T18:09:31.129Z,19.50
2019-04-01T18:30:15.074Z,14.27
2019-04-01T18:32:55.388Z,16.37
2019-04-01T18:35:44.974Z,16.93
2019-04-01T18:38:32.504Z,16.47
2019-04-01T18:41:20.327Z,18.30
2019-04-01T18:44:07.909Z,27.33
2019-04-01T18:46:56.049Z,33.53
2019-04-01T18:49:43.636Z,26.67
2019-04-01T18:52:31.213Z,27.40
2019-04-01T18:55:18.788Z,46.80
2019-04-01T18:58:06.360Z,43.23
2019-04-01T19:00:47.681Z,32.87
2019-04-01T19:03:28.490Z,19.80
2019-04-01T19:18:02.978Z,17.50
2019-04-01T19:20:55.669Z,17.87
2019-04-01T19:47:26.250Z,15.30
2019-04-01T20:04:59.009Z,17.10
2019-04-01T20:07:39.393Z,17.83
2019-04-01T20:57:57.445Z,15.10
2019-04-01T21:06:35.061Z,16.17
2019-04-01T21:09:16.389Z,16.37
2019-04-01T21:14:56.130Z,14.93
2019-04-01T21:35:27.720Z,13.27
2019-04-01T21:41:07.066Z,13.73
2019-04-01T21:43:49.037Z,13.03
2019-04-01T21:46:30.379Z,12.07
2019-04-01T21:49:11.111Z,13.53
2019-04-01T21:51:51.716Z,13.47
2019-04-01T21:57:45.550Z,13.03
2019-04-01T22:03:39.572Z,12.47
2019-04-01T22:06:20.301Z,12.53
2019-04-01T22:09:00.977Z,13.93
2019-04-01T22:14:40.621Z,11.93
2019-04-01T22:20:19.684Z,12.87
2019-04-01T22:25:59.454Z,13.00
2019-04-01T22:28:40.124Z,12.93
2019-04-01T22:43:14.213Z,12.53
2019-04-01T22:49:07.698Z,13.10
2019-04-01T23:06:41.992Z,12.90
2019-04-01T23:15:19.195Z,12.43
2019-04-01T23:24:03.619Z,12.63
2019-04-01T23:26:44.035Z,13.70
2019-04-01T23:32:24.102Z,12.40
2019-04-01T23:35:04.651Z,13.17
2019-04-01T23:46:41.194Z,11.83
2019-04-01T23:49:21.654Z,11.70
2019-04-01T23:58:00.583Z,11.20
